sensor_id;sensor_type;location;lat;lon;timestamp;P1;durP1;ratioP1;P2;durP2;ratioP2
55134;SDS011;41031;44.750;11.308;2023-02-13T00:00:20;74.83;;;45.87;;
55134;SDS011;41031;44.750;11.308;2023-02-13T00:02:49;71.60;;;44.60;;
55134;SDS011;41031;44.750;11.308;2023-02-13T00:05:16;74.63;;;45.73;;
55134;SDS011;41031;44.750;11.308;2023-02-13T00:07:44;76.53;;;48.27;;
55134;SDS011;41031;44.750;11.308;2023-02-13T00:10:11;77.23;;;49.10;;
55134;SDS011;41031;44.750;11.308;2023-02-13T00:12:38;80.57;;;46.60;;
55134;SDS011;41031;44.750;11.308;2023-02-13T00:15:06;80.47;;;47.87;;
55134;SDS011;41031;44.750;11.308;2023-02-13T00:17:33;82.37;;;46.20;;
55134;SDS011;41031;44.750;11.308;2023-02-13T00:20:01;77.37;;;45.70;;
55134;SDS011;41031;44.750;11.308;2023-02-13T00:22:28;75.27;;;46.13;;
55134;SDS011;41031;44.750;11.308;2023-02-13T00:24:55;73.37;;;46.03;;
55134;SDS011;41031;44.750;11.308;2023-02-13T00:27:22;73.20;;;45.80;;
55134;SDS011;41031;44.750;11.308;2023-02-13T00:29:49;82.90;;;47.30;;
55134;SDS011;41031;44.750;11.308;2023-02-13T00:32:16;78.77;;;46.43;;
55134;SDS011;41031;44.750;11.308;2023-02-13T00:34:43;83.90;;;47.17;;
55134;SDS011;41031;44.750;11.308;2023-02-13T00:37:10;75.10;;;44.70;;
55134;SDS011;41031;44.750;11.308;2023-02-13T00:39:37;73.77;;;46.27;;
55134;SDS011;41031;44.750;11.308;2023-02-13T00:42:04;74.60;;;45.23;;
55134;SDS011;41031;44.750;11.308;2023-02-13T00:44:31;73.27;;;46.63;;
55134;SDS011;41031;44.750;11.308;2023-02-13T00:46:59;80.00;;;49.83;;
55134;SDS011;41031;44.750;11.308;2023-02-13T00:49:26;76.17;;;45.63;;
55134;SDS011;41031;44.750;11.308;2023-02-13T00:51:53;74.83;;;45.87;;
55134;SDS011;41031;44.750;11.308;2023-02-13T00:54:20;80.60;;;46.87;;
55134;SDS011;41031;44.750;11.308;2023-02-13T00:56:48;75.37;;;47.70;;
55134;SDS011;41031;44.750;11.308;2023-02-13T00:59:15;80.53;;;48.10;;
55134;SDS011;41031;44.750;11.308;2023-02-13T01:01:43;80.67;;;46.97;;
55134;SDS011;41031;44.750;11.308;2023-02-13T01:04:10;77.70;;;47.57;;
55134;SDS011;41031;44.750;11.308;2023-02-13T01:06:37;79.67;;;46.47;;
55134;SDS011;41031;44.750;11.308;2023-02-13T01:09:04;83.97;;;48.33;;
55134;SDS011;41031;44.750;11.308;2023-02-13T01:11:34;73.17;;;45.77;;
55134;SDS011;41031;44.750;11.308;2023-02-13T01:14:01;75.90;;;45.67;;
55134;SDS011;41031;44.750;11.308;2023-02-13T01:16:28;72.27;;;44.70;;
55134;SDS011;41031;44.750;11.308;2023-02-13T01:18:55;75.27;;;46.60;;
55134;SDS011;41031;44.750;11.308;2023-02-13T01:21:22;76.83;;;45.30;;
55134;SDS011;41031;44.750;11.308;2023-02-13T01:23:51;74.47;;;44.60;;
55134;SDS011;41031;44.750;11.308;2023-02-13T01:26:19;71.97;;;45.67;;
55134;SDS011;41031;44.750;11.308;2023-02-13T01:28:54;76.20;;;47.43;;
55134;SDS011;41031;44.750;11.308;2023-02-13T01:31:23;78.43;;;47.03;;
55134;SDS011;41031;44.750;11.308;2023-02-13T01:33:51;79.23;;;48.80;;
55134;SDS011;41031;44.750;11.308;2023-02-13T01:36:20;81.87;;;48.10;;
55134;SDS011;41031;44.750;11.308;2023-02-13T01:38:50;83.70;;;48.53;;
55134;SDS011;41031;44.750;11.308;2023-02-13T01:41:19;69.53;;;44.50;;
55134;SDS011;41031;44.750;11.308;2023-02-13T01:46:15;81.70;;;46.93;;
55134;SDS011;41031;44.750;11.308;2023-02-13T01:48:46;74.80;;;45.00;;
55134;SDS011;41031;44.750;11.308;2023-02-13T01:51:16;83.33;;;48.10;;
55134;SDS011;41031;44.750;11.308;2023-02-13T01:53:50;86.83;;;49.63;;
55134;SDS011;41031;44.750;11.308;2023-02-13T01:56:33;82.33;;;51.27;;
55134;SDS011;41031;44.750;11.308;2023-02-13T01:59:17;89.00;;;49.77;;
55134;SDS011;41031;44.750;11.308;2023-02-13T02:01:50;78.87;;;47.93;;
55134;SDS011;41031;44.750;11.308;2023-02-13T02:04:21;78.27;;;48.30;;
55134;SDS011;41031;44.750;11.308;2023-02-13T02:06:56;77.97;;;47.70;;
55134;SDS011;41031;44.750;11.308;2023-02-13T02:09:31;76.50;;;45.83;;
55134;SDS011;41031;44.750;11.308;2023-02-13T02:14:37;62.97;;;37.67;;
55134;SDS011;41031;44.750;11.308;2023-02-13T02:17:08;64.73;;;40.13;;
55134;SDS011;41031;44.750;11.308;2023-02-13T02:22:33;77.53;;;48.23;;
55134;SDS011;41031;44.750;11.308;2023-02-13T02:37:12;90.40;;;48.43;;
55134;SDS011;41031;44.750;11.308;2023-02-13T02:47:24;89.53;;;50.67;;
55134;SDS011;41031;44.750;11.308;2023-02-13T02:50:18;86.53;;;51.93;;
55134;SDS011;41031;44.750;11.308;2023-02-13T02:58:19;83.90;;;50.90;;
55134;SDS011;41031;44.750;11.308;2023-02-13T03:01:08;84.20;;;50.13;;
55134;SDS011;41031;44.750;11.308;2023-02-13T03:03:57;94.97;;;53.40;;
55134;SDS011;41031;44.750;11.308;2023-02-13T03:06:46;87.57;;;51.23;;
55134;SDS011;41031;44.750;11.308;2023-02-13T03:09:25;80.93;;;50.07;;
55134;SDS011;41031;44.750;11.308;2023-02-13T03:12:16;79.73;;;49.93;;
55134;SDS011;41031;44.750;11.308;2023-02-13T03:15:05;87.50;;;52.40;;
55134;SDS011;41031;44.750;11.308;2023-02-13T03:17:33;89.60;;;51.50;;
55134;SDS011;41031;44.750;11.308;2023-02-13T03:35:03;96.57;;;53.87;;
55134;SDS011;41031;44.750;11.308;2023-02-13T03:38:12;94.00;;;55.87;;
55134;SDS011;41031;44.750;11.308;2023-02-13T03:40:50;95.33;;;55.60;;
55134;SDS011;41031;44.750;11.308;2023-02-13T03:46:32;89.93;;;54.87;;
55134;SDS011;41031;44.750;11.308;2023-02-13T03:49:03;98.27;;;56.33;;
55134;SDS011;41031;44.750;11.308;2023-02-13T03:51:55;98.20;;;58.03;;
55134;SDS011;41031;44.750;11.308;2023-02-13T03:54:25;95.27;;;57.87;;
55134;SDS011;41031;44.750;11.308;2023-02-13T03:57:32;96.90;;;57.50;;
55134;SDS011;41031;44.750;11.308;2023-02-13T04:00:22;91.77;;;55.70;;
55134;SDS011;41031;44.750;11.308;2023-02-13T04:02:58;101.13;;;57.00;;
55134;SDS011;41031;44.750;11.308;2023-02-13T04:05:35;99.30;;;56.93;;
55134;SDS011;41031;44.750;11.308;2023-02-13T04:08:07;90.20;;;55.73;;
55134;SDS011;41031;44.750;11.308;2023-02-13T04:10:34;85.20;;;53.77;;
55134;SDS011;41031;44.750;11.308;2023-02-13T04:13:14;88.77;;;52.80;;
55134;SDS011;41031;44.750;11.308;2023-02-13T04:16:05;93.33;;;53.87;;
55134;SDS011;41031;44.750;11.308;2023-02-13T04:18:37;91.03;;;53.43;;
55134;SDS011;41031;44.750;11.308;2023-02-13T04:21:05;86.17;;;52.83;;
55134;SDS011;41031;44.750;11.308;2023-02-13T04:23:33;96.00;;;58.57;;
55134;SDS011;41031;44.750;11.308;2023-02-13T04:26:03;97.17;;;57.83;;
55134;SDS011;41031;44.750;11.308;2023-02-13T04:28:34;100.03;;;57.87;;
55134;SDS011;41031;44.750;11.308;2023-02-13T04:31:01;100.63;;;59.43;;
55134;SDS011;41031;44.750;11.308;2023-02-13T04:33:28;92.73;;;56.17;;
55134;SDS011;41031;44.750;11.308;2023-02-13T04:35:55;92.50;;;55.20;;
55134;SDS011;41031;44.750;11.308;2023-02-13T04:38:22;89.47;;;53.37;;
55134;SDS011;41031;44.750;11.308;2023-02-13T04:40:49;98.73;;;58.53;;
55134;SDS011;41031;44.750;11.308;2023-02-13T04:43:16;93.13;;;57.27;;
55134;SDS011;41031;44.750;11.308;2023-02-13T04:45:46;91.77;;;54.60;;
55134;SDS011;41031;44.750;11.308;2023-02-13T04:48:14;93.13;;;57.00;;
55134;SDS011;41031;44.750;11.308;2023-02-13T04:50:42;97.87;;;56.77;;
55134;SDS011;41031;44.750;11.308;2023-02-13T04:53:09;103.53;;;60.13;;
55134;SDS011;41031;44.750;11.308;2023-02-13T04:55:36;106.60;;;59.57;;
55134;SDS011;41031;44.750;11.308;2023-02-13T04:58:03;98.13;;;59.63;;
55134;SDS011;41031;44.750;11.308;2023-02-13T05:00:30;101.87;;;59.37;;
55134;SDS011;41031;44.750;11.308;2023-02-13T05:03:15;100.70;;;57.10;;
55134;SDS011;41031;44.750;11.308;2023-02-13T05:05:42;99.17;;;56.90;;
55134;SDS011;41031;44.750;11.308;2023-02-13T05:08:10;101.33;;;56.17;;
55134;SDS011;41031;44.750;11.308;2023-02-13T05:10:37;95.43;;;54.53;;
55134;SDS011;41031;44.750;11.308;2023-02-13T05:13:04;91.20;;;55.97;;
55134;SDS011;41031;44.750;11.308;2023-02-13T05:15:31;100.03;;;56.57;;
55134;SDS011;41031;44.750;11.308;2023-02-13T05:17:58;93.87;;;54.00;;
55134;SDS011;41031;44.750;11.308;2023-02-13T05:20:26;97.67;;;57.67;;
55134;SDS011;41031;44.750;11.308;2023-02-13T05:22:53;104.50;;;59.03;;
55134;SDS011;41031;44.750;11.308;2023-02-13T05:25:39;104.37;;;54.30;;
55134;SDS011;41031;44.750;11.308;2023-02-13T05:28:07;99.13;;;55.67;;
55134;SDS011;41031;44.750;11.308;2023-02-13T05:30:54;96.70;;;55.90;;
55134;SDS011;41031;44.750;11.308;2023-02-13T05:33:22;93.10;;;56.63;;
55134;SDS011;41031;44.750;11.308;2023-02-13T05:35:49;89.50;;;53.17;;
55134;SDS011;41031;44.750;11.308;2023-02-13T05:38:16;90.03;;;55.07;;
55134;SDS011;41031;44.750;11.308;2023-02-13T05:40:44;98.97;;;56.07;;
55134;SDS011;41031;44.750;11.308;2023-02-13T05:43:11;95.03;;;55.57;;
55134;SDS011;41031;44.750;11.308;2023-02-13T05:45:38;98.93;;;57.07;;
55134;SDS011;41031;44.750;11.308;2023-02-13T05:48:04;89.63;;;55.07;;
55134;SDS011;41031;44.750;11.308;2023-02-13T05:50:31;94.77;;;57.77;;
55134;SDS011;41031;44.750;11.308;2023-02-13T05:52:58;90.90;;;53.40;;
55134;SDS011;41031;44.750;11.308;2023-02-13T05:55:25;94.87;;;56.47;;
55134;SDS011;41031;44.750;11.308;2023-02-13T05:57:56;90.53;;;52.70;;
55134;SDS011;41031;44.750;11.308;2023-02-13T06:00:23;95.53;;;53.57;;
55134;SDS011;41031;44.750;11.308;2023-02-13T06:02:50;86.80;;;51.70;;
55134;SDS011;41031;44.750;11.308;2023-02-13T06:05:17;94.03;;;54.43;;
55134;SDS011;41031;44.750;11.308;2023-02-13T06:07:44;94.30;;;55.27;;
55134;SDS011;41031;44.750;11.308;2023-02-13T06:10:12;88.83;;;48.57;;
55134;SDS011;41031;44.750;11.308;2023-02-13T06:12:39;88.97;;;53.20;;
55134;SDS011;41031;44.750;11.308;2023-02-13T06:15:06;91.87;;;52.03;;
55134;SDS011;41031;44.750;11.308;2023-02-13T06:17:33;87.40;;;51.93;;
55134;SDS011;41031;44.750;11.308;2023-02-13T06:20:00;86.57;;;51.37;;
55134;SDS011;41031;44.750;11.308;2023-02-13T06:22:27;85.57;;;51.23;;
55134;SDS011;41031;44.750;11.308;2023-02-13T06:24:54;91.20;;;51.97;;
55134;SDS011;41031;44.750;11.308;2023-02-13T06:27:21;92.53;;;51.20;;
55134;SDS011;41031;44.750;11.308;2023-02-13T06:29:48;85.70;;;49.97;;
55134;SDS011;41031;44.750;11.308;2023-02-13T06:32:15;95.57;;;52.10;;
55134;SDS011;41031;44.750;11.308;2023-02-13T06:34:42;91.63;;;51.70;;
55134;SDS011;41031;44.750;11.308;2023-02-13T06:37:09;80.87;;;48.30;;
55134;SDS011;41031;44.750;11.308;2023-02-13T06:39:36;78.40;;;47.83;;
55134;SDS011;41031;44.750;11.308;2023-02-13T06:42:03;93.10;;;51.80;;
55134;SDS011;41031;44.750;11.308;2023-02-13T06:44:30;81.67;;;48.60;;
55134;SDS011;41031;44.750;11.308;2023-02-13T06:46:57;89.50;;;47.37;;
55134;SDS011;41031;44.750;11.308;2023-02-13T06:49:25;86.23;;;49.10;;
55134;SDS011;41031;44.750;11.308;2023-02-13T06:51:52;97.30;;;52.70;;
55134;SDS011;41031;44.750;11.308;2023-02-13T06:54:19;89.87;;;52.00;;
55134;SDS011;41031;44.750;11.308;2023-02-13T06:56:51;86.10;;;51.00;;
55134;SDS011;41031;44.750;11.308;2023-02-13T06:59:18;85.57;;;51.87;;
55134;SDS011;41031;44.750;11.308;2023-02-13T07:01:45;80.80;;;47.53;;
55134;SDS011;41031;44.750;11.308;2023-02-13T07:04:12;82.47;;;50.40;;
55134;SDS011;41031;44.750;11.308;2023-02-13T07:06:40;89.73;;;49.70;;
55134;SDS011;41031;44.750;11.308;2023-02-13T07:09:07;81.73;;;48.53;;
55134;SDS011;41031;44.750;11.308;2023-02-13T07:11:34;88.60;;;51.27;;
55134;SDS011;41031;44.750;11.308;2023-02-13T07:14:02;85.70;;;49.87;;
55134;SDS011;41031;44.750;11.308;2023-02-13T07:16:29;89.80;;;53.63;;
55134;SDS011;41031;44.750;11.308;2023-02-13T07:18:57;90.97;;;51.90;;
55134;SDS011;41031;44.750;11.308;2023-02-13T07:21:24;85.83;;;51.53;;
55134;SDS011;41031;44.750;11.308;2023-02-13T07:42:26;91.17;;;57.80;;
55134;SDS011;41031;44.750;11.308;2023-02-13T07:44:54;85.23;;;53.77;;
55134;SDS011;41031;44.750;11.308;2023-02-13T07:47:23;90.70;;;52.33;;
55134;SDS011;41031;44.750;11.308;2023-02-13T07:49:51;86.63;;;53.17;;
55134;SDS011;41031;44.750;11.308;2023-02-13T07:52:20;83.63;;;52.63;;
55134;SDS011;41031;44.750;11.308;2023-02-13T07:54:47;91.73;;;55.07;;
55134;SDS011;41031;44.750;11.308;2023-02-13T07:57:16;91.47;;;55.40;;
55134;SDS011;41031;44.750;11.308;2023-02-13T07:59:44;90.20;;;53.90;;
55134;SDS011;41031;44.750;11.308;2023-02-13T08:02:12;89.63;;;55.30;;
55134;SDS011;41031;44.750;11.308;2023-02-13T08:04:40;94.47;;;55.93;;
55134;SDS011;41031;44.750;11.308;2023-02-13T08:07:15;92.77;;;54.93;;
55134;SDS011;41031;44.750;11.308;2023-02-13T08:09:43;100.23;;;56.03;;
55134;SDS011;41031;44.750;11.308;2023-02-13T08:12:30;85.70;;;55.13;;
55134;SDS011;41031;44.750;11.308;2023-02-13T08:15:00;89.03;;;55.73;;
55134;SDS011;41031;44.750;11.308;2023-02-13T08:17:27;89.00;;;53.57;;
55134;SDS011;41031;44.750;11.308;2023-02-13T08:19:54;93.17;;;57.20;;
55134;SDS011;41031;44.750;11.308;2023-02-13T08:22:21;86.10;;;55.90;;
55134;SDS011;41031;44.750;11.308;2023-02-13T08:24:48;89.00;;;56.03;;
55134;SDS011;41031;44.750;11.308;2023-02-13T08:27:15;92.73;;;56.63;;
55134;SDS011;41031;44.750;11.308;2023-02-13T08:29:42;102.27;;;57.17;;
55134;SDS011;41031;44.750;11.308;2023-02-13T08:32:09;94.23;;;56.50;;
55134;SDS011;41031;44.750;11.308;2023-02-13T08:34:36;100.07;;;58.00;;
55134;SDS011;41031;44.750;11.308;2023-02-13T08:37:03;100.97;;;58.87;;
55134;SDS011;41031;44.750;11.308;2023-02-13T08:39:30;97.67;;;60.73;;
55134;SDS011;41031;44.750;11.308;2023-02-13T08:41:57;95.50;;;58.50;;
55134;SDS011;41031;44.750;11.308;2023-02-13T08:44:24;105.30;;;59.40;;
55134;SDS011;41031;44.750;11.308;2023-02-13T08:46:51;109.47;;;60.63;;
55134;SDS011;41031;44.750;11.308;2023-02-13T08:49:19;94.13;;;59.97;;
55134;SDS011;41031;44.750;11.308;2023-02-13T08:51:46;97.70;;;58.73;;
55134;SDS011;41031;44.750;11.308;2023-02-13T08:54:13;94.33;;;60.23;;
55134;SDS011;41031;44.750;11.308;2023-02-13T08:56:40;95.30;;;61.37;;
55134;SDS011;41031;44.750;11.308;2023-02-13T08:59:07;95.37;;;59.57;;
55134;SDS011;41031;44.750;11.308;2023-02-13T09:01:34;97.57;;;60.17;;
55134;SDS011;41031;44.750;11.308;2023-02-13T09:04:01;109.80;;;61.57;;
55134;SDS011;41031;44.750;11.308;2023-02-13T09:06:29;102.33;;;58.50;;
55134;SDS011;41031;44.750;11.308;2023-02-13T09:08:56;95.03;;;60.73;;
55134;SDS011;41031;44.750;11.308;2023-02-13T09:11:23;98.90;;;61.97;;
55134;SDS011;41031;44.750;11.308;2023-02-13T09:13:53;92.97;;;60.13;;
55134;SDS011;41031;44.750;11.308;2023-02-13T09:16:21;102.17;;;62.77;;
55134;SDS011;41031;44.750;11.308;2023-02-13T09:26:32;100.33;;;60.57;;
55134;SDS011;41031;44.750;11.308;2023-02-13T09:28:59;88.80;;;56.80;;
55134;SDS011;41031;44.750;11.308;2023-02-13T09:31:27;93.83;;;58.70;;
55134;SDS011;41031;44.750;11.308;2023-02-13T09:33:55;92.63;;;59.80;;
55134;SDS011;41031;44.750;11.308;2023-02-13T09:36:22;94.77;;;59.80;;
55134;SDS011;41031;44.750;11.308;2023-02-13T09:38:51;87.53;;;57.57;;
55134;SDS011;41031;44.750;11.308;2023-02-13T09:41:22;86.03;;;56.80;;
55134;SDS011;41031;44.750;11.308;2023-02-13T09:43:56;89.07;;;57.27;;
55134;SDS011;41031;44.750;11.308;2023-02-13T09:46:28;84.00;;;57.97;;
55134;SDS011;41031;44.750;11.308;2023-02-13T09:48:57;89.17;;;55.73;;
55134;SDS011;41031;44.750;11.308;2023-02-13T09:51:28;90.37;;;57.37;;
55134;SDS011;41031;44.750;11.308;2023-02-13T09:54:00;91.53;;;57.73;;
55134;SDS011;41031;44.750;11.308;2023-02-13T10:08:10;93.73;;;54.53;;
55134;SDS011;41031;44.750;11.308;2023-02-13T10:11:02;83.57;;;55.50;;
55134;SDS011;41031;44.750;11.308;2023-02-13T10:16:28;86.83;;;53.30;;
55134;SDS011;41031;44.750;11.308;2023-02-13T10:19:51;86.43;;;55.73;;
55134;SDS011;41031;44.750;11.308;2023-02-13T10:21:59;87.93;;;54.67;;
55134;SDS011;41031;44.750;11.308;2023-02-13T10:27:34;82.20;;;52.27;;
55134;SDS011;41031;44.750;11.308;2023-02-13T10:30:07;75.30;;;51.87;;
55134;SDS011;41031;44.750;11.308;2023-02-13T10:36:20;76.87;;;50.70;;
55134;SDS011;41031;44.750;11.308;2023-02-13T11:00:41;68.03;;;46.90;;
55134;SDS011;41031;44.750;11.308;2023-02-13T11:03:21;75.23;;;47.57;;
55134;SDS011;41031;44.750;11.308;2023-02-13T11:05:51;68.13;;;45.93;;
55134;SDS011;41031;44.750;11.308;2023-02-13T11:08:27;69.07;;;46.73;;
55134;SDS011;41031;44.750;11.308;2023-02-13T11:10:56;69.93;;;47.90;;
55134;SDS011;41031;44.750;11.308;2023-02-13T11:13:24;78.13;;;46.07;;
55134;SDS011;41031;44.750;11.308;2023-02-13T11:15:55;65.83;;;46.23;;
55134;SDS011;41031;44.750;11.308;2023-02-13T11:18:24;63.73;;;42.20;;
55134;SDS011;41031;44.750;11.308;2023-02-13T11:21:13;63.03;;;44.30;;
55134;SDS011;41031;44.750;11.308;2023-02-13T11:23:52;64.30;;;44.83;;
55134;SDS011;41031;44.750;11.308;2023-02-13T11:29:03;58.20;;;41.27;;
55134;SDS011;41031;44.750;11.308;2023-02-13T11:31:43;61.40;;;43.23;;
55134;SDS011;41031;44.750;11.308;2023-02-13T11:36:51;54.43;;;37.27;;
55134;SDS011;41031;44.750;11.308;2023-02-13T11:39:21;56.33;;;38.00;;
55134;SDS011;41031;44.750;11.308;2023-02-13T11:41:48;58.43;;;40.03;;
55134;SDS011;41031;44.750;11.308;2023-02-13T11:44:31;52.40;;;35.60;;
55134;SDS011;41031;44.750;11.308;2023-02-13T11:46:59;56.27;;;37.60;;
55134;SDS011;41031;44.750;11.308;2023-02-13T11:49:30;60.10;;;39.23;;
55134;SDS011;41031;44.750;11.308;2023-02-13T11:52:06;51.87;;;37.67;;
55134;SDS011;41031;44.750;11.308;2023-02-13T11:54:59;47.97;;;31.70;;
55134;SDS011;41031;44.750;11.308;2023-02-13T11:57:34;50.03;;;33.23;;
55134;SDS011;41031;44.750;11.308;2023-02-13T12:00:46;47.47;;;32.90;;
55134;SDS011;41031;44.750;11.308;2023-02-13T12:02:54;44.43;;;31.07;;
55134;SDS011;41031;44.750;11.308;2023-02-13T12:05:22;46.90;;;32.03;;
55134;SDS011;41031;44.750;11.308;2023-02-13T12:07:54;48.00;;;33.47;;
55134;SDS011;41031;44.750;11.308;2023-02-13T12:15:25;38.90;;;26.50;;
55134;SDS011;41031;44.750;11.308;2023-02-13T12:20:33;37.33;;;26.03;;
55134;SDS011;41031;44.750;11.308;2023-02-13T12:23:30;36.70;;;25.87;;
55134;SDS011;41031;44.750;11.308;2023-02-13T12:28:38;32.90;;;22.77;;
55134;SDS011;41031;44.750;11.308;2023-02-13T12:34:02;33.30;;;23.20;;
55134;SDS011;41031;44.750;11.308;2023-02-13T12:36:38;31.37;;;22.40;;
55134;SDS011;41031;44.750;11.308;2023-02-13T12:39:39;31.97;;;23.47;;
55134;SDS011;41031;44.750;11.308;2023-02-13T12:50:46;28.47;;;20.40;;
55134;SDS011;41031;44.750;11.308;2023-02-13T12:59:54;33.67;;;24.00;;
55134;SDS011;41031;44.750;11.308;2023-02-13T13:14:30;29.40;;;21.10;;
55134;SDS011;41031;44.750;11.308;2023-02-13T13:17:10;48.97;;;28.77;;
55134;SDS011;41031;44.750;11.308;2023-02-13T13:22:57;34.90;;;25.87;;
55134;SDS011;41031;44.750;11.308;2023-02-13T13:28:03;28.67;;;20.60;;
55134;SDS011;41031;44.750;11.308;2023-02-13T13:30:41;33.97;;;23.10;;
55134;SDS011;41031;44.750;11.308;2023-02-13T13:33:14;36.13;;;25.00;;
55134;SDS011;41031;44.750;11.308;2023-02-13T13:35:44;34.83;;;23.87;;
55134;SDS011;41031;44.750;11.308;2023-02-13T13:41:10;34.93;;;25.10;;
55134;SDS011;41031;44.750;11.308;2023-02-13T13:46:43;36.97;;;26.20;;
55134;SDS011;41031;44.750;11.308;2023-02-13T13:49:28;36.50;;;24.97;;
55134;SDS011;41031;44.750;11.308;2023-02-13T13:54:53;35.23;;;24.60;;
55134;SDS011;41031;44.750;11.308;2023-02-13T13:57:25;91.57;;;46.60;;
55134;SDS011;41031;44.750;11.308;2023-02-13T13:59:57;41.37;;;28.03;;
55134;SDS011;41031;44.750;11.308;2023-02-13T14:02:26;29.00;;;21.97;;
55134;SDS011;41031;44.750;11.308;2023-02-13T14:05:01;27.43;;;20.17;;
55134;SDS011;41031;44.750;11.308;2023-02-13T14:07:36;28.17;;;20.27;;
55134;SDS011;41031;44.750;11.308;2023-02-13T14:29:22;35.43;;;21.93;;
55134;SDS011;41031;44.750;11.308;2023-02-13T14:32:03;28.33;;;20.77;;
55134;SDS011;41031;44.750;11.308;2023-02-13T14:34:34;50.43;;;28.17;;
55134;SDS011;41031;44.750;11.308;2023-02-13T14:39:42;32.73;;;22.07;;
55134;SDS011;41031;44.750;11.308;2023-02-13T14:42:33;25.90;;;18.93;;
55134;SDS011;41031;44.750;11.308;2023-02-13T14:45:01;27.10;;;18.07;;
55134;SDS011;41031;44.750;11.308;2023-02-13T14:47:38;26.57;;;19.17;;
55134;SDS011;41031;44.750;11.308;2023-02-13T14:50:17;53.23;;;31.33;;
55134;SDS011;41031;44.750;11.308;2023-02-13T14:52:47;34.77;;;22.40;;
55134;SDS011;41031;44.750;11.308;2023-02-13T14:55:22;38.80;;;25.80;;
55134;SDS011;41031;44.750;11.308;2023-02-13T14:58:14;26.00;;;19.20;;
55134;SDS011;41031;44.750;11.308;2023-02-13T15:00:53;28.20;;;19.17;;
55134;SDS011;41031;44.750;11.308;2023-02-13T15:06:10;29.13;;;18.50;;
55134;SDS011;41031;44.750;11.308;2023-02-13T15:08:49;24.60;;;18.73;;
55134;SDS011;41031;44.750;11.308;2023-02-13T15:11:37;30.20;;;18.23;;
55134;SDS011;41031;44.750;11.308;2023-02-13T15:16:42;26.23;;;18.17;;
55134;SDS011;41031;44.750;11.308;2023-02-13T15:19:18;28.77;;;17.40;;
55134;SDS011;41031;44.750;11.308;2023-02-13T15:21:49;26.63;;;16.93;;
55134;SDS011;41031;44.750;11.308;2023-02-13T15:24:22;26.43;;;17.93;;
55134;SDS011;41031;44.750;11.308;2023-02-13T15:26:54;25.43;;;17.40;;
55134;SDS011;41031;44.750;11.308;2023-02-13T15:29:27;24.23;;;15.40;;
55134;SDS011;41031;44.750;11.308;2023-02-13T15:32:16;26.27;;;17.83;;
55134;SDS011;41031;44.750;11.308;2023-02-13T15:34:46;24.20;;;17.13;;
55134;SDS011;41031;44.750;11.308;2023-02-13T15:37:21;28.07;;;19.10;;
55134;SDS011;41031;44.750;11.308;2023-02-13T15:39:50;23.63;;;16.83;;
55134;SDS011;41031;44.750;11.308;2023-02-13T15:42:18;28.57;;;19.93;;
55134;SDS011;41031;44.750;11.308;2023-02-13T15:44:47;32.30;;;19.37;;
55134;SDS011;41031;44.750;11.308;2023-02-13T15:47:26;26.43;;;17.70;;
55134;SDS011;41031;44.750;11.308;2023-02-13T15:49:56;26.00;;;18.23;;
55134;SDS011;41031;44.750;11.308;2023-02-13T15:52:35;26.70;;;19.73;;
55134;SDS011;41031;44.750;11.308;2023-02-13T15:55:05;31.37;;;18.00;;
55134;SDS011;41031;44.750;11.308;2023-02-13T15:57:32;30.10;;;19.03;;
55134;SDS011;41031;44.750;11.308;2023-02-13T16:00:01;29.33;;;20.60;;
55134;SDS011;41031;44.750;11.308;2023-02-13T16:02:41;28.23;;;18.63;;
55134;SDS011;41031;44.750;11.308;2023-02-13T16:05:12;27.53;;;18.17;;
55134;SDS011;41031;44.750;11.308;2023-02-13T16:07:51;26.40;;;18.53;;
55134;SDS011;41031;44.750;11.308;2023-02-13T16:12:54;27.23;;;17.70;;
55134;SDS011;41031;44.750;11.308;2023-02-13T16:15:24;26.13;;;17.87;;
55134;SDS011;41031;44.750;11.308;2023-02-13T16:17:55;29.97;;;17.20;;
55134;SDS011;41031;44.750;11.308;2023-02-13T16:20:29;24.80;;;17.73;;
55134;SDS011;41031;44.750;11.308;2023-02-13T16:23:32;26.67;;;17.50;;
55134;SDS011;41031;44.750;11.308;2023-02-13T16:25:52;24.07;;;16.93;;
55134;SDS011;41031;44.750;11.308;2023-02-13T16:28:29;26.03;;;17.57;;
55134;SDS011;41031;44.750;11.308;2023-02-13T16:30:58;24.73;;;16.37;;
55134;SDS011;41031;44.750;11.308;2023-02-13T16:33:32;24.37;;;16.43;;
55134;SDS011;41031;44.750;11.308;2023-02-13T16:43:41;41.87;;;24.40;;
55134;SDS011;41031;44.750;11.308;2023-02-13T16:57:05;27.27;;;17.83;;
55134;SDS011;41031;44.750;11.308;2023-02-13T17:07:41;28.97;;;18.87;;
55134;SDS011;41031;44.750;11.308;2023-02-13T17:12:47;32.73;;;19.20;;
55134;SDS011;41031;44.750;11.308;2023-02-13T17:15:17;31.47;;;19.33;;
55134;SDS011;41031;44.750;11.308;2023-02-13T17:17:47;32.30;;;18.80;;
55134;SDS011;41031;44.750;11.308;2023-02-13T17:20:20;33.07;;;20.73;;
55134;SDS011;41031;44.750;11.308;2023-02-13T17:22:50;38.37;;;21.97;;
55134;SDS011;41031;44.750;11.308;2023-02-13T17:25:29;33.17;;;20.37;;
55134;SDS011;41031;44.750;11.308;2023-02-13T17:28:09;31.63;;;19.30;;
55134;SDS011;41031;44.750;11.308;2023-02-13T17:30:41;31.03;;;19.43;;
55134;SDS011;41031;44.750;11.308;2023-02-13T17:33:25;30.80;;;19.63;;
55134;SDS011;41031;44.750;11.308;2023-02-13T17:35:54;31.60;;;20.80;;
55134;SDS011;41031;44.750;11.308;2023-02-13T17:38:21;33.17;;;20.20;;
55134;SDS011;41031;44.750;11.308;2023-02-13T17:40:48;32.97;;;20.83;;
55134;SDS011;41031;44.750;11.308;2023-02-13T17:43:16;35.30;;;21.17;;
55134;SDS011;41031;44.750;11.308;2023-02-13T17:45:45;31.67;;;21.07;;
55134;SDS011;41031;44.750;11.308;2023-02-13T17:48:12;35.57;;;21.50;;
55134;SDS011;41031;44.750;11.308;2023-02-13T17:50:39;33.23;;;20.60;;
55134;SDS011;41031;44.750;11.308;2023-02-13T17:53:10;32.17;;;20.40;;
55134;SDS011;41031;44.750;11.308;2023-02-13T17:55:44;34.40;;;20.90;;
55134;SDS011;41031;44.750;11.308;2023-02-13T17:58:11;30.90;;;19.60;;
55134;SDS011;41031;44.750;11.308;2023-02-13T18:00:38;34.73;;;20.90;;
55134;SDS011;41031;44.750;11.308;2023-02-13T18:03:05;35.73;;;18.90;;
55134;SDS011;41031;44.750;11.308;2023-02-13T18:05:33;33.23;;;20.23;;
55134;SDS011;41031;44.750;11.308;2023-02-13T18:08:02;31.47;;;19.23;;
55134;SDS011;41031;44.750;11.308;2023-02-13T18:10:32;33.10;;;20.63;;
55134;SDS011;41031;44.750;11.308;2023-02-13T18:13:01;33.47;;;19.50;;
55134;SDS011;41031;44.750;11.308;2023-02-13T18:15:30;31.20;;;18.93;;
55134;SDS011;41031;44.750;11.308;2023-02-13T18:18:04;29.37;;;19.33;;
55134;SDS011;41031;44.750;11.308;2023-02-13T18:20:31;30.57;;;19.50;;
55134;SDS011;41031;44.750;11.308;2023-02-13T18:22:59;28.70;;;19.67;;
55134;SDS011;41031;44.750;11.308;2023-02-13T18:25:26;31.67;;;19.43;;
55134;SDS011;41031;44.750;11.308;2023-02-13T18:27:54;28.47;;;17.97;;
55134;SDS011;41031;44.750;11.308;2023-02-13T18:30:21;30.50;;;19.10;;
55134;SDS011;41031;44.750;11.308;2023-02-13T18:32:52;30.40;;;20.20;;